sensor_id;sensor_type;location;lat;lon;timestamp;pressure;altitude;pressure_sealevel;temperature;humidity
16331;BME280;8275;48.206;16.340;2022-10-26T00:01:34;99633.31;;;17.27;49.57
16331;BME280;8275;48.206;16.340;2022-10-26T00:04:02;99633.59;;;17.26;49.73
16331;BME280;8275;48.206;16.340;2022-10-26T00:06:31;99636.94;;;17.23;49.74
16331;BME280;8275;48.206;16.340;2022-10-26T00:08:59;99633.66;;;17.21;49.87
16331;BME280;8275;48.206;16.340;2022-10-26T00:11:28;99633.13;;;17.19;49.96
16331;BME280;8275;48.206;16.340;2022-10-26T00:13:56;99636.44;;;17.16;49.90
16331;BME280;8275;48.206;16.340;2022-10-26T00:16:27;99625.97;;;17.13;49.91
16331;BME280;8275;48.206;16.340;2022-10-26T00:18:55;99627.63;;;17.14;49.98
16331;BME280;8275;48.206;16.340;2022-10-26T00:21:23;99622.38;;;17.12;49.94
16331;BME280;8275;48.206;16.340;2022-10-26T00:23:52;99621.53;;;17.12;50.16
16331;BME280;8275;48.206;16.340;2022-10-26T00:26:20;99615.47;;;17.10;50.20
16331;BME280;8275;48.206;16.340;2022-10-26T00:28:51;99624.88;;;17.09;50.14
16331;BME280;8275;48.206;16.340;2022-10-26T00:31:20;99622.41;;;17.07;50.08
16331;BME280;8275;48.206;16.340;2022-10-26T00:33:53;99633.78;;;17.06;50.18
16331;BME280;8275;48.206;16.340;2022-10-26T00:36:22;99629.06;;;17.06;50.27
16331;BME280;8275;48.206;16.340;2022-10-26T00:38:53;99627.41;;;17.05;50.08
16331;BME280;8275;48.206;16.340;2022-10-26T00:41:24;99633.22;;;17.04;50.19
16331;BME280;8275;48.206;16.340;2022-10-26T00:43:54;99626.06;;;17.03;50.25
16331;BME280;8275;48.206;16.340;2022-10-26T00:46:25;99620.25;;;16.99;50.04
16331;BME280;8275;48.206;16.340;2022-10-26T00:48:59;99623.31;;;16.98;50.29
16331;BME280;8275;48.206;16.340;2022-10-26T00:51:32;99620.31;;;16.94;50.16
16331;BME280;8275;48.206;16.340;2022-10-26T00:54:08;99610.94;;;16.90;50.21
16331;BME280;8275;48.206;16.340;2022-10-26T00:56:39;99616.47;;;16.90;50.14
16331;BME280;8275;48.206;16.340;2022-10-26T00:59:10;99612.63;;;16.86;50.16
16331;BME280;8275;48.206;16.340;2022-10-26T01:01:43;99622.06;;;16.85;50.24
16331;BME280;8275;48.206;16.340;2022-10-26T01:04:14;99618.47;;;16.84;50.43
16331;BME280;8275;48.206;16.340;2022-10-26T01:06:43;99608.50;;;16.83;50.42
16331;BME280;8275;48.206;16.340;2022-10-26T01:09:12;99603.25;;;16.82;50.16
16331;BME280;8275;48.206;16.340;2022-10-26T01:11:41;99607.44;;;16.79;50.39
16331;BME280;8275;48.206;16.340;2022-10-26T01:14:10;99601.66;;;16.76;50.38
16331;BME280;8275;48.206;16.340;2022-10-26T01:16:54;99598.31;;;16.74;50.30
16331;BME280;8275;48.206;16.340;2022-10-26T01:22:50;99603.34;;;16.67;50.31
16331;BME280;8275;48.206;16.340;2022-10-26T01:25:45;99597.88;;;16.62;50.41
16331;BME280;8275;48.206;16.340;2022-10-26T01:28:32;99592.94;;;16.59;50.32
16331;BME280;8275;48.206;16.340;2022-10-26T01:31:10;99594.31;;;16.56;50.41
16331;BME280;8275;48.206;16.340;2022-10-26T01:33:43;99591.03;;;16.54;50.34
16331;BME280;8275;48.206;16.340;2022-10-26T01:36:19;99598.78;;;16.52;50.40
16331;BME280;8275;48.206;16.340;2022-10-26T01:38:56;99594.63;;;16.50;50.33
16331;BME280;8275;48.206;16.340;2022-10-26T01:41:31;99584.94;;;16.47;50.58
16331;BME280;8275;48.206;16.340;2022-10-26T01:44:04;99593.25;;;16.47;50.37
16331;BME280;8275;48.206;16.340;2022-10-26T01:46:38;99584.13;;;16.47;50.57
16331;BME280;8275;48.206;16.340;2022-10-26T01:49:10;99589.94;;;16.45;50.52
16331;BME280;8275;48.206;16.340;2022-10-26T01:51:42;99589.13;;;16.45;50.53
16331;BME280;8275;48.206;16.340;2022-10-26T01:54:12;99589.13;;;16.45;50.55
16331;BME280;8275;48.206;16.340;2022-10-26T01:56:43;99590.50;;;16.42;50.69
16331;BME280;8275;48.206;16.340;2022-10-26T01:59:24;99599.63;;;16.43;50.77
16331;BME280;8275;48.206;16.340;2022-10-26T02:05:44;99598.56;;;16.39;50.55
16331;BME280;8275;48.206;16.340;2022-10-26T02:08:37;99602.44;;;16.38;50.52
16331;BME280;8275;48.206;16.340;2022-10-26T02:11:18;99589.72;;;16.37;50.76
16331;BME280;8275;48.206;16.340;2022-10-26T02:13:54;99592.50;;;16.37;50.73
16331;BME280;8275;48.206;16.340;2022-10-26T02:16:28;99594.44;;;16.36;50.63
16331;BME280;8275;48.206;16.340;2022-10-26T02:19:06;99591.66;;;16.36;50.64
16331;BME280;8275;48.206;16.340;2022-10-26T02:21:40;99586.13;;;16.36;50.89
16331;BME280;8275;48.206;16.340;2022-10-26T02:24:12;99586.13;;;16.36;50.73
16331;BME280;8275;48.206;16.340;2022-10-26T02:26:46;99589.16;;;16.35;50.91
16331;BME280;8275;48.206;16.340;2022-10-26T02:29:18;99579.53;;;16.32;50.86
16331;BME280;8275;48.206;16.340;2022-10-26T02:31:48;99576.78;;;16.32;50.84
16331;BME280;8275;48.206;16.340;2022-10-26T02:34:23;99584.50;;;16.30;50.81
16331;BME280;8275;48.206;16.340;2022-10-26T02:36:54;99579.25;;;16.29;50.83
16331;BME280;8275;48.206;16.340;2022-10-26T02:39:25;99575.44;;;16.25;50.88
16331;BME280;8275;48.206;16.340;2022-10-26T02:41:56;99574.06;;;16.22;50.70
16331;BME280;8275;48.206;16.340;2022-10-26T02:44:28;99589.56;;;16.18;51.02
16331;BME280;8275;48.206;16.340;2022-10-26T02:46:57;99590.66;;;16.17;50.86
16331;BME280;8275;48.206;16.340;2022-10-26T02:49:28;99595.38;;;16.16;51.06
16331;BME280;8275;48.206;16.340;2022-10-26T02:52:01;99590.97;;;16.15;51.12
16331;BME280;8275;48.206;16.340;2022-10-26T02:54:38;99596.75;;;16.14;51.16
16331;BME280;8275;48.206;16.340;2022-10-26T02:57:12;99594.81;;;16.14;51.11
16331;BME280;8275;48.206;16.340;2022-10-26T02:59:45;99602.28;;;16.14;51.29
16331;BME280;8275;48.206;16.340;2022-10-26T03:02:15;99595.66;;;16.15;51.26
16331;BME280;8275;48.206;16.340;2022-10-26T03:04:46;99593.72;;;16.15;51.36
16331;BME280;8275;48.206;16.340;2022-10-26T03:07:21;99598.44;;;16.15;51.34
16331;BME280;8275;48.206;16.340;2022-10-26T03:09:49;99599.25;;;16.15;51.53
16331;BME280;8275;48.206;16.340;2022-10-26T03:12:18;99598.13;;;16.16;51.44
16331;BME280;8275;48.206;16.340;2022-10-26T03:14:47;99598.13;;;16.16;51.69
16331;BME280;8275;48.206;16.340;2022-10-26T03:17:15;99598.13;;;16.16;51.58
16331;BME280;8275;48.206;16.340;2022-10-26T03:19:45;99597.31;;;16.16;51.67
16331;BME280;8275;48.206;16.340;2022-10-26T03:22:13;99592.59;;;16.16;51.37
16331;BME280;8275;48.206;16.340;2022-10-26T03:24:41;99592.59;;;16.16;51.72
16331;BME280;8275;48.206;16.340;2022-10-26T03:27:10;99587.91;;;16.17;51.84
16331;BME280;8275;48.206;16.340;2022-10-26T03:29:38;99596.19;;;16.17;51.63
16331;BME280;8275;48.206;16.340;2022-10-26T03:32:07;99589.84;;;16.16;51.76
16331;BME280;8275;48.206;16.340;2022-10-26T03:34:35;99588.72;;;16.17;51.79
16331;BME280;8275;48.206;16.340;2022-10-26T03:37:05;99593.44;;;16.17;51.80
16331;BME280;8275;48.206;16.340;2022-10-26T03:39:33;99577.97;;;16.16;51.96
16331;BME280;8275;48.206;16.340;2022-10-26T03:42:01;99587.06;;;16.16;51.91
16331;BME280;8275;48.206;16.340;2022-10-26T03:44:30;99583.78;;;16.14;52.01
16331;BME280;8275;48.206;16.340;2022-10-26T03:46:58;99574.66;;;16.14;51.96
16331;BME280;8275;48.206;16.340;2022-10-26T03:49:27;99582.94;;;16.14;51.99
16331;BME280;8275;48.206;16.340;2022-10-26T03:51:55;99571.88;;;16.14;52.00
16331;BME280;8275;48.206;16.340;2022-10-26T03:54:25;99566.66;;;16.12;52.03
16331;BME280;8275;48.206;16.340;2022-10-26T03:56:53;99571.34;;;16.12;51.93
16331;BME280;8275;48.206;16.340;2022-10-26T03:59:22;99567.78;;;16.11;52.12
16331;BME280;8275;48.206;16.340;2022-10-26T04:01:50;99567.78;;;16.11;51.95
16331;BME280;8275;48.206;16.340;2022-10-26T04:04:23;99566.09;;;16.10;52.13
16331;BME280;8275;48.206;16.340;2022-10-26T04:06:52;99573.31;;;16.11;52.13
16331;BME280;8275;48.206;16.340;2022-10-26T04:09:20;99570.81;;;16.10;51.96
16331;BME280;8275;48.206;16.340;2022-10-26T04:11:50;99576.88;;;16.12;52.35
16331;BME280;8275;48.206;16.340;2022-10-26T04:14:18;99569.41;;;16.12;52.11
16331;BME280;8275;48.206;16.340;2022-10-26T04:16:47;99571.06;;;16.13;52.17
16331;BME280;8275;48.206;16.340;2022-10-26T04:19:15;99568.03;;;16.15;52.12
16331;BME280;8275;48.206;16.340;2022-10-26T04:21:43;99564.16;;;16.16;52.21
16331;BME280;8275;48.206;16.340;2022-10-26T04:24:12;99565.78;;;16.17;52.18
16331;BME280;8275;48.206;16.340;2022-10-26T04:26:41;99559.97;;;16.18;52.14
16331;BME280;8275;48.206;16.340;2022-10-26T04:29:12;99565.22;;;16.20;52.19
16331;BME280;8275;48.206;16.340;2022-10-26T04:31:41;99566.59;;;16.23;52.28
16331;BME280;8275;48.206;16.340;2022-10-26T04:34:14;99564.63;;;16.23;52.02
16331;BME280;8275;48.206;16.340;2022-10-26T04:36:42;99563.53;;;16.24;52.28
16331;BME280;8275;48.206;16.340;2022-10-26T04:39:11;99559.69;;;16.25;52.03
16331;BME280;8275;48.206;16.340;2022-10-26T04:41:39;99567.66;;;16.27;52.10
16331;BME280;8275;48.206;16.340;2022-10-26T04:44:07;99563.50;;;16.29;52.07
16331;BME280;8275;48.206;16.340;2022-10-26T04:46:37;99570.41;;;16.32;52.15
16331;BME280;8275;48.206;16.340;2022-10-26T04:49:06;99570.94;;;16.34;52.32
16331;BME280;8275;48.206;16.340;2022-10-26T04:51:34;99577.00;;;16.36;52.40
16331;BME280;8275;48.206;16.340;2022-10-26T04:54:03;99576.72;;;16.37;52.16
16331;BME280;8275;48.206;16.340;2022-10-26T04:56:31;99570.91;;;16.39;52.38
16331;BME280;8275;48.206;16.340;2022-10-26T04:59:00;99568.94;;;16.39;52.31
16331;BME280;8275;48.206;16.340;2022-10-26T05:01:30;99571.44;;;16.41;52.40
16331;BME280;8275;48.206;16.340;2022-10-26T05:04:00;99573.09;;;16.42;52.53
16331;BME280;8275;48.206;16.340;2022-10-26T05:06:28;99575.59;;;16.43;52.44
16331;BME280;8275;48.206;16.340;2022-10-26T05:08:57;99579.97;;;16.44;52.38
16331;BME280;8275;48.206;16.340;2022-10-26T05:11:25;99586.34;;;16.45;52.54
16331;BME280;8275;48.206;16.340;2022-10-26T05:13:54;99584.41;;;16.45;52.40
16331;BME280;8275;48.206;16.340;2022-10-26T05:16:22;99586.88;;;16.47;52.65
16331;BME280;8275;48.206;16.340;2022-10-26T05:18:51;99585.78;;;16.48;52.54
16331;BME280;8275;48.206;16.340;2022-10-26T05:21:20;99583.84;;;16.48;52.72
16331;BME280;8275;48.206;16.340;2022-10-26T05:23:49;99583.84;;;16.48;52.46
16331;BME280;8275;48.206;16.340;2022-10-26T05:26:20;99588.56;;;16.48;52.66
16331;BME280;8275;48.206;16.340;2022-10-26T05:28:48;99590.47;;;16.47;52.60
16331;BME280;8275;48.206;16.340;2022-10-26T05:31:18;99590.19;;;16.49;52.55
16331;BME280;8275;48.206;16.340;2022-10-26T05:33:48;99591.84;;;16.50;52.69
16331;BME280;8275;48.206;16.340;2022-10-26T05:36:17;99602.09;;;16.54;52.49
16331;BME280;8275;48.206;16.340;2022-10-26T05:38:47;99608.69;;;16.58;52.72
16331;BME280;8275;48.206;16.340;2022-10-26T05:41:16;99609.75;;;16.62;52.62
16331;BME280;8275;48.206;16.340;2022-10-26T05:43:46;99612.50;;;16.67;52.62
16331;BME280;8275;48.206;16.340;2022-10-26T05:46:15;99613.00;;;16.74;52.55
16331;BME280;8275;48.206;16.340;2022-10-26T05:48:43;99621.50;;;16.83;52.59
16331;BME280;8275;48.206;16.340;2022-10-26T05:51:11;99631.13;;;16.91;52.55
16331;BME280;8275;48.206;16.340;2022-10-26T05:53:40;99631.63;;;16.98;52.71
16331;BME280;8275;48.206;16.340;2022-10-26T05:56:17;99632.44;;;17.03;52.62
16331;BME280;8275;48.206;16.340;2022-10-26T05:58:47;99622.66;;;17.11;52.45
16331;BME280;8275;48.206;16.340;2022-10-26T06:01:25;99629.50;;;17.18;52.54
16331;BME280;8275;48.206;16.340;2022-10-26T06:04:14;99625.28;;;17.26;52.58
16331;BME280;8275;48.206;16.340;2022-10-26T06:06:46;99631.31;;;17.33;52.36
16331;BME280;8275;48.206;16.340;2022-10-26T06:09:17;99634.56;;;17.40;52.41
16331;BME280;8275;48.206;16.340;2022-10-26T06:11:48;99637.84;;;17.47;52.34
16331;BME280;8275;48.206;16.340;2022-10-26T06:14:17;99630.84;;;17.54;52.48
16331;BME280;8275;48.206;16.340;2022-10-26T06:17:01;99639.63;;;17.62;52.26
16331;BME280;8275;48.206;16.340;2022-10-26T06:19:46;99644.00;;;17.68;52.14
16331;BME280;8275;48.206;16.340;2022-10-26T06:22:41;99650.31;;;17.73;52.09
16331;BME280;8275;48.206;16.340;2022-10-26T06:25:26;99646.06;;;17.81;52.08
16331;BME280;8275;48.206;16.340;2022-10-26T06:28:07;99655.16;;;17.86;52.01
16331;BME280;8275;48.206;16.340;2022-10-26T06:30:40;99671.97;;;17.95;52.16
16331;BME280;8275;48.206;16.340;2022-10-26T06:33:11;99673.84;;;17.99;51.91
16331;BME280;8275;48.206;16.340;2022-10-26T06:36:04;99683.81;;;18.00;51.73
16331;BME280;8275;48.206;16.340;2022-10-26T06:38:40;99674.63;;;18.05;51.61
16331;BME280;8275;48.206;16.340;2022-10-26T06:41:12;99673.44;;;18.11;51.73
16331;BME280;8275;48.206;16.340;2022-10-26T06:43:44;99670.63;;;18.16;51.88
16331;BME280;8275;48.206;16.340;2022-10-26T06:46:28;99667.78;;;18.21;51.76
16331;BME280;8275;48.206;16.340;2022-10-26T06:49:06;99664.34;;;18.29;51.84
16331;BME280;8275;48.206;16.340;2022-10-26T06:51:45;99661.19;;;18.36;51.72
16331;BME280;8275;48.206;16.340;2022-10-26T06:54:20;99664.44;;;18.43;51.59
16331;BME280;8275;48.206;16.340;2022-10-26T06:56:51;99673.25;;;18.50;51.44
16331;BME280;8275;48.206;16.340;2022-10-26T06:59:34;99663.81;;;18.51;51.34
16331;BME280;8275;48.206;16.340;2022-10-26T07:02:04;99670.63;;;18.58;51.21
16331;BME280;8275;48.206;16.340;2022-10-26T07:04:33;99662.53;;;18.62;51.15
16331;BME280;8275;48.206;16.340;2022-10-26T07:07:02;99660.81;;;18.66;50.88
16331;BME280;8275;48.206;16.340;2022-10-26T07:09:30;99670.16;;;18.70;51.03
16331;BME280;8275;48.206;16.340;2022-10-26T07:11:59;99667.13;;;18.71;50.85
16331;BME280;8275;48.206;16.340;2022-10-26T07:14:29;99676.81;;;18.74;50.87
16331;BME280;8275;48.206;16.340;2022-10-26T07:16:57;99677.84;;;18.78;50.93
16331;BME280;8275;48.206;16.340;2022-10-26T07:19:26;99676.94;;;18.82;50.67
16331;BME280;8275;48.206;16.340;2022-10-26T07:21:55;99680.75;;;18.86;50.77
16331;BME280;8275;48.206;16.340;2022-10-26T07:24:25;99684.56;;;18.90;50.71
16331;BME280;8275;48.206;16.340;2022-10-26T07:26:54;99689.22;;;18.95;50.53
16331;BME280;8275;48.206;16.340;2022-10-26T07:29:23;99689.47;;;18.99;50.51
16331;BME280;8275;48.206;16.340;2022-10-26T07:31:54;99683.84;;;19.04;50.45
16331;BME280;8275;48.206;16.340;2022-10-26T07:34:22;99684.88;;;19.08;50.50
16331;BME280;8275;48.206;16.340;2022-10-26T07:36:50;99687.84;;;19.11;50.46
16331;BME280;8275;48.206;16.340;2022-10-26T07:39:19;99694.47;;;19.15;50.28
16331;BME280;8275;48.206;16.340;2022-10-26T07:41:47;99694.69;;;19.19;50.35
16331;BME280;8275;48.206;16.340;2022-10-26T07:44:16;99698.81;;;19.21;50.18
16331;BME280;8275;48.206;16.340;2022-10-26T07:46:45;99687.91;;;19.25;50.09
16331;BME280;8275;48.206;16.340;2022-10-26T07:49:14;99695.34;;;19.29;50.01
16331;BME280;8275;48.206;16.340;2022-10-26T07:51:45;99686.66;;;19.36;50.04
16331;BME280;8275;48.206;16.340;2022-10-26T07:54:14;99684.00;;;19.44;50.13
16331;BME280;8275;48.206;16.340;2022-10-26T07:56:42;99690.53;;;19.53;50.10
16331;BME280;8275;48.206;16.340;2022-10-26T07:59:11;99688.16;;;19.60;49.78
16331;BME280;8275;48.206;16.340;2022-10-26T08:01:39;99693.94;;;19.64;49.99
16331;BME280;8275;48.206;16.340;2022-10-26T08:04:08;99698.97;;;19.62;50.17
16331;BME280;8275;48.206;16.340;2022-10-26T08:06:38;99717.09;;;19.59;49.88
16331;BME280;8275;48.206;16.340;2022-10-26T08:09:06;99710.81;;;19.54;50.09
16331;BME280;8275;48.206;16.340;2022-10-26T08:11:35;99705.00;;;19.50;50.31
16331;BME280;8275;48.206;16.340;2022-10-26T08:14:04;99712.22;;;19.51;50.33
16331;BME280;8275;48.206;16.340;2022-10-26T08:16:32;99714.69;;;19.53;50.25
16331;BME280;8275;48.206;16.340;2022-10-26T08:19:01;99703.31;;;19.54;50.36
16331;BME280;8275;48.206;16.340;2022-10-26T08:21:29;99703.00;;;19.56;50.22
16331;BME280;8275;48.206;16.340;2022-10-26T08:24:14;99708.84;;;19.54;50.13
16331;BME280;8275;48.206;16.340;2022-10-26T08:26:42;99694.13;;;19.54;50.26
16331;BME280;8275;48.206;16.340;2022-10-26T08:29:11;99696.06;;;19.53;50.24
16331;BME280;8275;48.206;16.340;2022-10-26T08:31:39;99705.53;;;19.52;50.30
16331;BME280;8275;48.206;16.340;2022-10-26T08:34:08;99706.69;;;19.51;50.15
16331;BME280;8275;48.206;16.340;2022-10-26T08:36:36;99708.09;;;19.49;50.08
16331;BME280;8275;48.206;16.340;2022-10-26T08:39:05;99707.34;;;19.43;50.13
16331;BME280;8275;48.206;16.340;2022-10-26T08:41:37;99713.31;;;19.37;50.36
16331;BME280;8275;48.206;16.340;2022-10-26T08:44:22;99720.25;;;19.34;50.51
16331;BME280;8275;48.206;16.340;2022-10-26T08:46:56;99723.88;;;19.35;50.58
16331;BME280;8275;48.206;16.340;2022-10-26T08:49:29;99713.63;;;19.35;50.66
16331;BME280;8275;48.206;16.340;2022-10-26T08:52:01;99715.50;;;19.40;50.75
16331;BME280;8275;48.206;16.340;2022-10-26T08:54:36;99727.03;;;19.47;50.75
16331;BME280;8275;48.206;16.340;2022-10-26T08:57:16;99724.97;;;19.52;50.60
16331;BME280;8275;48.206;16.340;2022-10-26T08:59:52;99734.38;;;19.56;50.50
16331;BME280;8275;48.206;16.340;2022-10-26T09:02:21;99738.72;;;19.63;50.60
16331;BME280;8275;48.206;16.340;2022-10-26T09:04:52;99717.84;;;19.65;50.32
16331;BME280;8275;48.206;16.340;2022-10-26T09:07:45;99724.00;;;19.62;50.63
16331;BME280;8275;48.206;16.340;2022-10-26T09:10:37;99730.19;;;19.59;50.57
16331;BME280;8275;48.206;16.340;2022-10-26T09:13:19;99738.72;;;19.63;50.56
16331;BME280;8275;48.206;16.340;2022-10-26T09:16:01;99751.19;;;19.65;50.42
16331;BME280;8275;48.206;16.340;2022-10-26T09:18:45;99748.31;;;19.70;50.38
16331;BME280;8275;48.206;16.340;2022-10-26T09:21:31;99763.56;;;19.73;50.24
16331;BME280;8275;48.206;16.340;2022-10-26T09:24:09;99759.97;;;19.72;50.18
16331;BME280;8275;48.206;16.340;2022-10-26T09:26:52;99759.44;;;19.70;50.05
16331;BME280;8275;48.206;16.340;2022-10-26T09:29:28;99758.81;;;19.73;50.22
16331;BME280;8275;48.206;16.340;2022-10-26T09:31:59;99764.28;;;19.78;50.40
16331;BME280;8275;48.206;16.340;2022-10-26T09:34:35;99773.69;;;19.82;49.97
16331;BME280;8275;48.206;16.340;2022-10-26T09:37:14;99766.91;;;19.88;50.37
16331;BME280;8275;48.206;16.340;2022-10-26T09:39:51;99757.63;;;19.93;50.24
16331;BME280;8275;48.206;16.340;2022-10-26T09:42:26;99759.19;;;19.99;50.19
16331;BME280;8275;48.206;16.340;2022-10-26T09:45:05;99757.84;;;19.96;50.21
16331;BME280;8275;48.206;16.340;2022-10-26T09:47:42;99754.47;;;19.99;50.49
16331;BME280;8275;48.206;16.340;2022-10-26T09:50:21;99752.69;;;20.03;50.47
16331;BME280;8275;48.206;16.340;2022-10-26T09:52:51;99744.78;;;20.10;50.56
16331;BME280;8275;48.206;16.340;2022-10-26T09:55:19;99751.41;;;20.14;50.46
16331;BME280;8275;48.206;16.340;2022-10-26T09:57:52;99749.34;;;20.20;50.36
16331;BME280;8275;48.206;16.340;2022-10-26T10:00:24;99745.06;;;20.27;50.21
16331;BME280;8275;48.206;16.340;2022-10-26T10:02:56;99754.94;;;20.34;50.28
16331;BME280;8275;48.206;16.340;2022-10-26T10:05:29;99752.06;;;20.39;50.29
16331;BME280;8275;48.206;16.340;2022-10-26T10:08:20;99749.19;;;20.44;50.00
16331;BME280;8275;48.206;16.340;2022-10-26T10:11:00;99760.59;;;20.42;50.24
16331;BME280;8275;48.206;16.340;2022-10-26T10:13:32;99755.66;;;20.39;50.50
16331;BME280;8275;48.206;16.340;2022-10-26T10:16:07;99759.28;;;20.40;50.01
16331;BME280;8275;48.206;16.340;2022-10-26T10:18:39;99746.41;;;20.44;50.32
16331;BME280;8275;48.206;16.340;2022-10-26T10:21:09;99748.75;;;20.50;50.30
16331;BME280;8275;48.206;16.340;2022-10-26T10:23:48;99752.56;;;20.54;50.04
16331;BME280;8275;48.206;16.340;2022-10-26T10:26:18;99751.34;;;20.60;49.86
16331;BME280;8275;48.206;16.340;2022-10-26T10:28:57;99754.13;;;20.60;50.06
16331;BME280;8275;48.206;16.340;2022-10-26T10:31:31;99759.16;;;20.58;49.78
16331;BME280;8275;48.206;16.340;2022-10-26T10:34:01;99753.91;;;20.57;50.06
16331;BME280;8275;48.206;16.340;2022-10-26T10:36:42;99753.72;;;20.53;50.10
16331;BME280;8275;48.206;16.340;2022-10-26T10:39:35;99746.59;;;20.47;50.01
16331;BME280;8275;48.206;16.340;2022-10-26T10:42:15;99747.41;;;20.48;50.15
16331;BME280;8275;48.206;16.340;2022-10-26T10:44:45;99749.06;;;20.49;50.02
16331;BME280;8275;48.206;16.340;2022-10-26T10:47:21;99747.41;;;20.48;50.04
16331;BME280;8275;48.206;16.340;2022-10-26T10:49:53;99749.06;;;20.49;50.11
16331;BME280;8275;48.206;16.340;2022-10-26T10:52:26;99754.50;;;20.54;50.27
16331;BME280;8275;48.206;16.340;2022-10-26T10:55:15;99759.16;;;20.58;50.14
16331;BME280;8275;48.206;16.340;2022-10-26T10:57:59;99760.63;;;20.69;50.36
16331;BME280;8275;48.206;16.340;2022-10-26T11:00:36;99754.69;;;20.84;50.10
16331;BME280;8275;48.206;16.340;2022-10-26T11:03:22;99758.28;;;20.98;50.26
16331;BME280;8275;48.206;16.340;2022-10-26T11:06:04;99766.13;;;21.10;49.64
16331;BME280;8275;48.206;16.340;2022-10-26T11:08:42;99764.56;;;21.18;49.92
16331;BME280;8275;48.206;16.340;2022-10-26T11:11:15;99767.44;;;21.26;49.48
16331;BME280;8275;48.206;16.340;2022-10-26T11:13:51;99771.63;;;21.37;49.40
16331;BME280;8275;48.206;16.340;2022-10-26T11:16:24;99760.84;;;21.44;49.36
16331;BME280;8275;48.206;16.340;2022-10-26T11:18:58;99761.88;;;21.48;49.14
16331;BME280;8275;48.206;16.340;2022-10-26T11:21:30;99764.03;;;21.51;49.23
16331;BME280;8275;48.206;16.340;2022-10-26T11:24:12;99757.00;;;21.54;48.80
16331;BME280;8275;48.206;16.340;2022-10-26T11:26:47;99758.22;;;21.61;48.75
16331;BME280;8275;48.206;16.340;2022-10-26T11:29:37;99763.63;;;21.66;49.06
16331;BME280;8275;48.206;16.340;2022-10-26T11:32:18;99760.44;;;21.73;49.02
16331;BME280;8275;48.206;16.340;2022-10-26T11:34:53;99761.59;;;21.81;48.63
16331;BME280;8275;48.206;16.340;2022-10-26T11:37:33;99761.38;;;21.91;48.61
16331;BME280;8275;48.206;16.340;2022-10-26T11:40:19;99754.72;;;22.00;48.32
16331;BME280;8275;48.206;16.340;2022-10-26T11:43:00;99756.91;;;22.12;48.52
16331;BME280;8275;48.206;16.340;2022-10-26T11:45:34;99747.94;;;22.23;48.43
16331;BME280;8275;48.206;16.340;2022-10-26T11:48:14;99767.38;;;22.37;47.92
16331;BME280;8275;48.206;16.340;2022-10-26T11:50:49;99760.34;;;22.48;48.27
16331;BME280;8275;48.206;16.340;2022-10-26T11:53:24;99762.22;;;22.61;47.81
16331;BME280;8275;48.206;16.340;2022-10-26T11:55:54;99758.00;;;22.72;47.79
16331;BME280;8275;48.206;16.340;2022-10-26T11:58:25;99760.47;;;22.82;47.26
16331;BME280;8275;48.206;16.340;2022-10-26T12:00:59;99761.16;;;22.88;46.95
16331;BME280;8275;48.206;16.340;2022-10-26T12:03:32;99759.69;;;22.90;46.95
16331;BME280;8275;48.206;16.340;2022-10-26T12:06:04;99760.50;;;22.91;46.94
16331;BME280;8275;48.206;16.340;2022-10-26T12:08:37;99763.47;;;22.86;46.81
16331;BME280;8275;48.206;16.340;2022-10-26T12:11:13;99762.78;;;22.80;46.55
16331;BME280;8275;48.206;16.340;2022-10-26T12:13:53;99760.97;;;22.76;46.86
16331;BME280;8275;48.206;16.340;2022-10-26T12:16:40;99761.94;;;22.71;46.65
16331;BME280;8275;48.206;16.340;2022-10-26T12:19:17;99769.34;;;22.67;46.56
16331;BME280;8275;48.206;16.340;2022-10-26T12:21:50;99771.09;;;22.63;46.49
16331;BME280;8275;48.206;16.340;2022-10-26T12:24:28;99771.25;;;22.58;46.65
16331;BME280;8275;48.206;16.340;2022-10-26T12:27:00;99763.66;;;22.59;46.52
16331;BME280;8275;48.206;16.340;2022-10-26T12:29:39;99767.97;;;22.56;46.76
16331;BME280;8275;48.206;16.340;2022-10-26T12:32:52;99774.03;;;22.58;46.90
16331;BME280;8275;48.206;16.340;2022-10-26T12:35:39;99768.31;;;22.63;46.64
16331;BME280;8275;48.206;16.340;2022-10-26T12:38:57;99766.34;;;22.64;46.69
16331;BME280;8275;48.206;16.340;2022-10-26T12:41:27;99767.53;;;22.71;46.83
16331;BME280;8275;48.206;16.340;2022-10-26T12:44:00;99769.69;;;22.74;46.64
16331;BME280;8275;48.206;16.340;2022-10-26T12:46:39;99768.22;;;22.77;46.39
16331;BME280;8275;48.206;16.340;2022-10-26T12:52:48;99770.53;;;22.92;46.28
16331;BME280;8275;48.206;16.340;2022-10-26T12:56:01;99765.09;;;22.95;46.63
16331;BME280;8275;48.206;16.340;2022-10-26T12:59:04;99763.97;;;23.05;46.42
16331;BME280;8275;48.206;16.340;2022-10-26T13:02:20;99762.50;;;23.08;46.04
16331;BME280;8275;48.206;16.340;2022-10-26T13:05:39;99768.44;;;23.06;46.01
16331;BME280;8275;48.206;16.340;2022-10-26T13:08:16;99767.59;;;23.05;45.76
16331;BME280;8275;48.206;16.340;2022-10-26T13:11:02;99776.28;;;22.95;45.54
16331;BME280;8275;48.206;16.340;2022-10-26T13:13:33;99769.72;;;22.91;45.63
16331;BME280;8275;48.206;16.340;2022-10-26T13:16:03;99772.31;;;22.79;45.57
16331;BME280;8275;48.206;16.340;2022-10-26T13:18:41;99766.53;;;22.67;45.88
16331;BME280;8275;48.206;16.340;2022-10-26T13:21:11;99773.41;;;22.61;45.96
16331;BME280;8275;48.206;16.340;2022-10-26T13:23:44;99771.03;;;22.55;46.12
16331;BME280;8275;48.206;16.340;2022-10-26T13:26:16;99777.59;;;22.50;46.16
16331;BME280;8275;48.206;16.340;2022-10-26T13:28:50;99774.16;;;22.45;46.19
16331;BME280;8275;48.206;16.340;2022-10-26T13:31:55;99772.47;;;22.35;45.95
16331;BME280;8275;48.206;16.340;2022-10-26T13:34:28;99781.81;;;22.30;46.06
16331;BME280;8275;48.206;16.340;2022-10-26T13:37:11;99778.66;;;22.23;46.22
16331;BME280;8275;48.206;16.340;2022-10-26T13:39:45;99778.44;;;22.20;46.28
16331;BME280;8275;48.206;16.340;2022-10-26T13:42:19;99786.31;;;22.18;46.34
16331;BME280;8275;48.206;16.340;2022-10-26T13:44:53;99785.31;;;22.14;46.35
16331;BME280;8275;48.206;16.340;2022-10-26T13:47:28;99784.31;;;22.10;46.41